sensor_id;sensor_type;location;lat;lon;timestamp;P1;durP1;ratioP1;P2;durP2;ratioP2
79212;SDS011;68639;52.380;9.822;2023-04-24T00:01:09;2.37;;;1.00;;
79212;SDS011;68639;52.380;9.822;2023-04-24T00:03:35;2.03;;;1.10;;
79212;SDS011;68639;52.380;9.822;2023-04-24T00:06:00;2.60;;;1.40;;
79212;SDS011;68639;52.380;9.822;2023-04-24T00:08:25;1.97;;;1.03;;
79212;SDS011;68639;52.380;9.822;2023-04-24T00:10:51;1.83;;;1.10;;
79212;SDS011;68639;52.380;9.822;2023-04-24T00:13:17;1.97;;;1.20;;
79212;SDS011;68639;52.380;9.822;2023-04-24T00:15:43;2.83;;;1.27;;
79212;SDS011;68639;52.380;9.822;2023-04-24T00:18:08;1.73;;;1.10;;
79212;SDS011;68639;52.380;9.822;2023-04-24T00:20:33;2.03;;;1.30;;
79212;SDS011;68639;52.380;9.822;2023-04-24T00:23:00;2.03;;;1.20;;
79212;SDS011;68639;52.380;9.822;2023-04-24T00:25:25;3.10;;;1.23;;
79212;SDS011;68639;52.380;9.822;2023-04-24T00:27:50;1.43;;;0.87;;
79212;SDS011;68639;52.380;9.822;2023-04-24T00:30:16;2.93;;;1.30;;
79212;SDS011;68639;52.380;9.822;2023-04-24T00:32:41;1.60;;;0.90;;
79212;SDS011;68639;52.380;9.822;2023-04-24T00:35:06;3.67;;;1.40;;
79212;SDS011;68639;52.380;9.822;2023-04-24T00:37:32;2.67;;;1.27;;
79212;SDS011;68639;52.380;9.822;2023-04-24T00:39:57;4.10;;;1.10;;
79212;SDS011;68639;52.380;9.822;2023-04-24T00:42:22;3.27;;;1.10;;
79212;SDS011;68639;52.380;9.822;2023-04-24T00:44:48;2.33;;;1.10;;
79212;SDS011;68639;52.380;9.822;2023-04-24T00:47:13;2.40;;;1.10;;
79212;SDS011;68639;52.380;9.822;2023-04-24T00:49:39;5.13;;;1.20;;
79212;SDS011;68639;52.380;9.822;2023-04-24T00:52:04;2.63;;;1.33;;
79212;SDS011;68639;52.380;9.822;2023-04-24T00:54:33;2.70;;;1.10;;
79212;SDS011;68639;52.380;9.822;2023-04-24T00:56:58;2.83;;;1.40;;
79212;SDS011;68639;52.380;9.822;2023-04-24T00:59:25;2.23;;;1.60;;
79212;SDS011;68639;52.380;9.822;2023-04-24T01:01:50;4.23;;;1.23;;
79212;SDS011;68639;52.380;9.822;2023-04-24T01:04:16;2.53;;;1.10;;
79212;SDS011;68639;52.380;9.822;2023-04-24T01:06:42;2.33;;;1.00;;
79212;SDS011;68639;52.380;9.822;2023-04-24T01:09:08;2.50;;;1.10;;
79212;SDS011;68639;52.380;9.822;2023-04-24T01:11:34;3.70;;;1.17;;
79212;SDS011;68639;52.380;9.822;2023-04-24T01:13:59;2.90;;;0.90;;
79212;SDS011;68639;52.380;9.822;2023-04-24T01:16:24;2.33;;;1.10;;
79212;SDS011;68639;52.380;9.822;2023-04-24T01:18:50;2.07;;;1.13;;
79212;SDS011;68639;52.380;9.822;2023-04-24T01:21:16;3.53;;;1.00;;
79212;SDS011;68639;52.380;9.822;2023-04-24T01:23:45;2.60;;;1.00;;
79212;SDS011;68639;52.380;9.822;2023-04-24T01:26:11;1.50;;;0.90;;
79212;SDS011;68639;52.380;9.822;2023-04-24T01:28:36;4.50;;;1.07;;
79212;SDS011;68639;52.380;9.822;2023-04-24T01:31:02;1.83;;;1.00;;
79212;SDS011;68639;52.380;9.822;2023-04-24T01:33:27;4.00;;;1.20;;
79212;SDS011;68639;52.380;9.822;2023-04-24T01:35:52;4.60;;;1.00;;
79212;SDS011;68639;52.380;9.822;2023-04-24T01:38:18;2.40;;;1.10;;
79212;SDS011;68639;52.380;9.822;2023-04-24T01:40:43;3.13;;;0.90;;
79212;SDS011;68639;52.380;9.822;2023-04-24T01:43:08;2.47;;;1.10;;
79212;SDS011;68639;52.380;9.822;2023-04-24T01:45:34;1.90;;;1.00;;
79212;SDS011;68639;52.380;9.822;2023-04-24T01:47:59;2.17;;;0.90;;
79212;SDS011;68639;52.380;9.822;2023-04-24T01:50:25;4.33;;;1.20;;
79212;SDS011;68639;52.380;9.822;2023-04-24T01:52:50;3.10;;;1.00;;
79212;SDS011;68639;52.380;9.822;2023-04-24T01:55:15;1.53;;;1.00;;
79212;SDS011;68639;52.380;9.822;2023-04-24T01:57:41;2.43;;;0.90;;
79212;SDS011;68639;52.380;9.822;2023-04-24T02:00:06;1.87;;;1.00;;
79212;SDS011;68639;52.380;9.822;2023-04-24T02:02:32;2.00;;;1.17;;
79212;SDS011;68639;52.380;9.822;2023-04-24T02:04:57;3.87;;;1.10;;
79212;SDS011;68639;52.380;9.822;2023-04-24T02:07:23;3.30;;;0.90;;
79212;SDS011;68639;52.380;9.822;2023-04-24T02:09:48;3.93;;;1.10;;
79212;SDS011;68639;52.380;9.822;2023-04-24T02:12:14;1.87;;;0.90;;
79212;SDS011;68639;52.380;9.822;2023-04-24T02:14:39;1.83;;;0.90;;
79212;SDS011;68639;52.380;9.822;2023-04-24T02:17:05;2.87;;;1.17;;
79212;SDS011;68639;52.380;9.822;2023-04-24T02:19:31;1.70;;;1.10;;
79212;SDS011;68639;52.380;9.822;2023-04-24T02:21:56;2.10;;;1.00;;
79212;SDS011;68639;52.380;9.822;2023-04-24T02:24:21;2.27;;;1.00;;
79212;SDS011;68639;52.380;9.822;2023-04-24T02:26:47;2.63;;;1.17;;
79212;SDS011;68639;52.380;9.822;2023-04-24T02:29:12;3.03;;;1.27;;
79212;SDS011;68639;52.380;9.822;2023-04-24T02:31:37;3.00;;;1.20;;
79212;SDS011;68639;52.380;9.822;2023-04-24T02:34:02;1.90;;;1.20;;
79212;SDS011;68639;52.380;9.822;2023-04-24T02:36:27;1.67;;;1.00;;
79212;SDS011;68639;52.380;9.822;2023-04-24T02:38:53;2.33;;;1.20;;
79212;SDS011;68639;52.380;9.822;2023-04-24T02:41:18;2.97;;;1.20;;
79212;SDS011;68639;52.380;9.822;2023-04-24T02:43:43;2.83;;;1.07;;
79212;SDS011;68639;52.380;9.822;2023-04-24T02:46:08;1.30;;;1.00;;
79212;SDS011;68639;52.380;9.822;2023-04-24T02:48:34;2.50;;;1.20;;
79212;SDS011;68639;52.380;9.822;2023-04-24T02:50:59;2.90;;;1.20;;
79212;SDS011;68639;52.380;9.822;2023-04-24T02:53:24;2.10;;;1.13;;
79212;SDS011;68639;52.380;9.822;2023-04-24T02:55:50;4.20;;;1.60;;
79212;SDS011;68639;52.380;9.822;2023-04-24T02:58:15;2.43;;;1.30;;
79212;SDS011;68639;52.380;9.822;2023-04-24T03:00:40;2.63;;;1.40;;
79212;SDS011;68639;52.380;9.822;2023-04-24T03:03:06;2.03;;;1.33;;
79212;SDS011;68639;52.380;9.822;2023-04-24T03:05:31;2.07;;;1.33;;
79212;SDS011;68639;52.380;9.822;2023-04-24T03:07:57;3.23;;;1.40;;
79212;SDS011;68639;52.380;9.822;2023-04-24T03:10:22;2.10;;;1.20;;
79212;SDS011;68639;52.380;9.822;2023-04-24T03:12:47;2.80;;;1.33;;
79212;SDS011;68639;52.380;9.822;2023-04-24T03:15:13;2.00;;;1.20;;
79212;SDS011;68639;52.380;9.822;2023-04-24T03:17:38;1.80;;;1.07;;
79212;SDS011;68639;52.380;9.822;2023-04-24T03:20:04;2.13;;;1.20;;
79212;SDS011;68639;52.380;9.822;2023-04-24T03:22:30;1.83;;;1.10;;
79212;SDS011;68639;52.380;9.822;2023-04-24T03:24:57;2.80;;;1.10;;
79212;SDS011;68639;52.380;9.822;2023-04-24T03:27:22;4.07;;;1.10;;
79212;SDS011;68639;52.380;9.822;2023-04-24T03:29:48;2.07;;;1.20;;
79212;SDS011;68639;52.380;9.822;2023-04-24T03:32:16;2.10;;;1.10;;
79212;SDS011;68639;52.380;9.822;2023-04-24T03:34:41;3.33;;;1.27;;
79212;SDS011;68639;52.380;9.822;2023-04-24T03:37:07;5.50;;;1.13;;
79212;SDS011;68639;52.380;9.822;2023-04-24T03:39:32;1.80;;;1.03;;
79212;SDS011;68639;52.380;9.822;2023-04-24T03:41:57;1.33;;;0.90;;
79212;SDS011;68639;52.380;9.822;2023-04-24T03:44:22;2.00;;;0.90;;
79212;SDS011;68639;52.380;9.822;2023-04-24T03:46:47;1.90;;;1.00;;
79212;SDS011;68639;52.380;9.822;2023-04-24T03:49:13;3.20;;;0.97;;
79212;SDS011;68639;52.380;9.822;2023-04-24T03:51:38;2.23;;;1.00;;
79212;SDS011;68639;52.380;9.822;2023-04-24T03:54:03;2.13;;;0.90;;
79212;SDS011;68639;52.380;9.822;2023-04-24T03:56:28;3.03;;;1.10;;
79212;SDS011;68639;52.380;9.822;2023-04-24T03:58:53;2.13;;;1.13;;
79212;SDS011;68639;52.380;9.822;2023-04-24T04:01:19;3.07;;;1.10;;
79212;SDS011;68639;52.380;9.822;2023-04-24T04:03:45;3.03;;;1.00;;
79212;SDS011;68639;52.380;9.822;2023-04-24T04:06:10;1.77;;;0.90;;
79212;SDS011;68639;52.380;9.822;2023-04-24T04:08:37;1.40;;;1.10;;
79212;SDS011;68639;52.380;9.822;2023-04-24T04:11:03;2.00;;;1.00;;
79212;SDS011;68639;52.380;9.822;2023-04-24T04:13:28;1.80;;;1.10;;
79212;SDS011;68639;52.380;9.822;2023-04-24T04:15:53;4.40;;;1.07;;
79212;SDS011;68639;52.380;9.822;2023-04-24T04:18:19;3.23;;;1.23;;
79212;SDS011;68639;52.380;9.822;2023-04-24T04:20:44;1.87;;;1.00;;
79212;SDS011;68639;52.380;9.822;2023-04-24T04:23:09;3.73;;;1.60;;
79212;SDS011;68639;52.380;9.822;2023-04-24T04:25:34;2.23;;;1.50;;
79212;SDS011;68639;52.380;9.822;2023-04-24T04:28:00;4.13;;;1.30;;
79212;SDS011;68639;52.380;9.822;2023-04-24T04:30:25;1.93;;;1.20;;
79212;SDS011;68639;52.380;9.822;2023-04-24T04:32:50;2.03;;;1.07;;
79212;SDS011;68639;52.380;9.822;2023-04-24T04:35:16;1.50;;;1.10;;
79212;SDS011;68639;52.380;9.822;2023-04-24T04:37:41;3.30;;;1.27;;
79212;SDS011;68639;52.380;9.822;2023-04-24T04:40:06;3.53;;;1.30;;
79212;SDS011;68639;52.380;9.822;2023-04-24T04:42:32;3.63;;;1.20;;
79212;SDS011;68639;52.380;9.822;2023-04-24T04:44:59;8.80;;;1.20;;
79212;SDS011;68639;52.380;9.822;2023-04-24T04:47:24;1.70;;;1.10;;
79212;SDS011;68639;52.380;9.822;2023-04-24T04:49:50;2.17;;;1.07;;
79212;SDS011;68639;52.380;9.822;2023-04-24T04:52:16;3.33;;;1.07;;
79212;SDS011;68639;52.380;9.822;2023-04-24T04:54:42;1.67;;;1.03;;
79212;SDS011;68639;52.380;9.822;2023-04-24T04:57:08;3.57;;;1.10;;
79212;SDS011;68639;52.380;9.822;2023-04-24T04:59:33;1.93;;;1.03;;
79212;SDS011;68639;52.380;9.822;2023-04-24T05:01:58;2.50;;;1.10;;
79212;SDS011;68639;52.380;9.822;2023-04-24T05:04:23;2.33;;;1.10;;
79212;SDS011;68639;52.380;9.822;2023-04-24T05:06:48;2.63;;;1.20;;
79212;SDS011;68639;52.380;9.822;2023-04-24T05:09:16;3.50;;;1.60;;
79212;SDS011;68639;52.380;9.822;2023-04-24T05:11:41;3.40;;;1.03;;
79212;SDS011;68639;52.380;9.822;2023-04-24T05:14:06;3.27;;;1.20;;
79212;SDS011;68639;52.380;9.822;2023-04-24T05:16:31;2.00;;;1.07;;
79212;SDS011;68639;52.380;9.822;2023-04-24T05:18:57;1.37;;;0.80;;
79212;SDS011;68639;52.380;9.822;2023-04-24T05:21:22;1.53;;;1.03;;
79212;SDS011;68639;52.380;9.822;2023-04-24T05:23:47;3.03;;;1.33;;
79212;SDS011;68639;52.380;9.822;2023-04-24T05:26:13;4.67;;;1.53;;
79212;SDS011;68639;52.380;9.822;2023-04-24T05:28:38;3.37;;;1.60;;
79212;SDS011;68639;52.380;9.822;2023-04-24T05:31:03;3.70;;;1.33;;
79212;SDS011;68639;52.380;9.822;2023-04-24T05:33:29;1.37;;;0.97;;
79212;SDS011;68639;52.380;9.822;2023-04-24T05:35:54;2.87;;;1.27;;
79212;SDS011;68639;52.380;9.822;2023-04-24T05:38:19;1.97;;;1.00;;
79212;SDS011;68639;52.380;9.822;2023-04-24T05:40:48;3.43;;;0.90;;
79212;SDS011;68639;52.380;9.822;2023-04-24T05:43:13;3.10;;;1.47;;
79212;SDS011;68639;52.380;9.822;2023-04-24T05:45:38;2.63;;;1.07;;
79212;SDS011;68639;52.380;9.822;2023-04-24T05:48:04;2.30;;;1.20;;
79212;SDS011;68639;52.380;9.822;2023-04-24T05:50:29;3.37;;;1.10;;
79212;SDS011;68639;52.380;9.822;2023-04-24T05:52:55;3.33;;;1.10;;
79212;SDS011;68639;52.380;9.822;2023-04-24T05:55:21;2.43;;;0.90;;
79212;SDS011;68639;52.380;9.822;2023-04-24T05:57:46;1.70;;;1.20;;
79212;SDS011;68639;52.380;9.822;2023-04-24T06:00:12;2.28;;;1.10;;
79212;SDS011;68639;52.380;9.822;2023-04-24T06:02:38;2.33;;;1.10;;
79212;SDS011;68639;52.380;9.822;2023-04-24T06:05:03;2.50;;;1.23;;
79212;SDS011;68639;52.380;9.822;2023-04-24T06:07:29;3.38;;;1.27;;
79212;SDS011;68639;52.380;9.822;2023-04-24T06:09:54;1.80;;;1.10;;
79212;SDS011;68639;52.380;9.822;2023-04-24T06:12:20;3.30;;;1.00;;
79212;SDS011;68639;52.380;9.822;2023-04-24T06:14:45;4.20;;;1.00;;
79212;SDS011;68639;52.380;9.822;2023-04-24T06:17:10;4.43;;;0.90;;
79212;SDS011;68639;52.380;9.822;2023-04-24T06:19:35;2.95;;;1.08;;
79212;SDS011;68639;52.380;9.822;2023-04-24T06:22:01;2.15;;;1.00;;
79212;SDS011;68639;52.380;9.822;2023-04-24T06:24:29;2.60;;;1.00;;
79212;SDS011;68639;52.380;9.822;2023-04-24T06:26:54;1.98;;;0.80;;
79212;SDS011;68639;52.380;9.822;2023-04-24T06:29:21;2.73;;;0.90;;
79212;SDS011;68639;52.380;9.822;2023-04-24T06:31:47;2.97;;;1.05;;
79212;SDS011;68639;52.380;9.822;2023-04-24T06:34:12;2.00;;;1.00;;
79212;SDS011;68639;52.380;9.822;2023-04-24T06:36:37;1.60;;;1.00;;
79212;SDS011;68639;52.380;9.822;2023-04-24T06:39:02;3.23;;;1.10;;
79212;SDS011;68639;52.380;9.822;2023-04-24T06:41:28;2.67;;;1.40;;
79212;SDS011;68639;52.380;9.822;2023-04-24T06:43:54;5.07;;;1.50;;
79212;SDS011;68639;52.380;9.822;2023-04-24T06:46:19;3.83;;;1.53;;
79212;SDS011;68639;52.380;9.822;2023-04-24T06:48:47;7.13;;;1.87;;
79212;SDS011;68639;52.380;9.822;2023-04-24T06:51:12;2.57;;;1.70;;
79212;SDS011;68639;52.380;9.822;2023-04-24T06:53:37;3.10;;;1.80;;
79212;SDS011;68639;52.380;9.822;2023-04-24T06:56:02;3.80;;;2.00;;
79212;SDS011;68639;52.380;9.822;2023-04-24T06:58:29;2.73;;;1.73;;
79212;SDS011;68639;52.380;9.822;2023-04-24T07:00:55;5.53;;;2.53;;
79212;SDS011;68639;52.380;9.822;2023-04-24T07:03:20;4.33;;;2.90;;
79212;SDS011;68639;52.380;9.822;2023-04-24T07:05:45;3.95;;;2.60;;
79212;SDS011;68639;52.380;9.822;2023-04-24T07:08:11;5.40;;;2.47;;
79212;SDS011;68639;52.380;9.822;2023-04-24T07:10:36;5.70;;;3.00;;
79212;SDS011;68639;52.380;9.822;2023-04-24T07:13:01;4.93;;;3.08;;
79212;SDS011;68639;52.380;9.822;2023-04-24T07:15:27;6.05;;;3.60;;
79212;SDS011;68639;52.380;9.822;2023-04-24T07:17:52;6.85;;;4.03;;
79212;SDS011;68639;52.380;9.822;2023-04-24T07:20:17;7.70;;;4.00;;
79212;SDS011;68639;52.380;9.822;2023-04-24T07:22:42;7.80;;;3.80;;
79212;SDS011;68639;52.380;9.822;2023-04-24T07:25:08;6.00;;;4.05;;
79212;SDS011;68639;52.380;9.822;2023-04-24T07:27:34;8.87;;;4.70;;
79212;SDS011;68639;52.380;9.822;2023-04-24T07:29:59;5.45;;;4.10;;
79212;SDS011;68639;52.380;9.822;2023-04-24T07:32:24;8.38;;;4.13;;
79212;SDS011;68639;52.380;9.822;2023-04-24T07:34:50;7.27;;;3.90;;
79212;SDS011;68639;52.380;9.822;2023-04-24T07:37:15;6.00;;;3.72;;
79212;SDS011;68639;52.380;9.822;2023-04-24T07:39:40;6.97;;;4.50;;
79212;SDS011;68639;52.380;9.822;2023-04-24T07:42:06;7.70;;;4.97;;
79212;SDS011;68639;52.380;9.822;2023-04-24T07:44:31;7.78;;;4.25;;
79212;SDS011;68639;52.380;9.822;2023-04-24T07:46:57;6.00;;;4.20;;
79212;SDS011;68639;52.380;9.822;2023-04-24T07:49:22;7.40;;;4.40;;
79212;SDS011;68639;52.380;9.822;2023-04-24T07:51:47;5.75;;;4.05;;
79212;SDS011;68639;52.380;9.822;2023-04-24T07:54:12;6.13;;;4.28;;
79212;SDS011;68639;52.380;9.822;2023-04-24T07:56:38;7.68;;;4.80;;
79212;SDS011;68639;52.380;9.822;2023-04-24T07:59:04;8.43;;;5.10;;
79212;SDS011;68639;52.380;9.822;2023-04-24T08:01:29;8.57;;;4.85;;
79212;SDS011;68639;52.380;9.822;2023-04-24T08:03:54;8.07;;;5.25;;
79212;SDS011;68639;52.380;9.822;2023-04-24T08:06:20;8.45;;;5.55;;
79212;SDS011;68639;52.380;9.822;2023-04-24T08:08:45;8.43;;;5.50;;
79212;SDS011;68639;52.380;9.822;2023-04-24T08:11:10;8.73;;;5.50;;
79212;SDS011;68639;52.380;9.822;2023-04-24T08:13:36;7.88;;;5.90;;
79212;SDS011;68639;52.380;9.822;2023-04-24T08:16:02;8.15;;;5.88;;
79212;SDS011;68639;52.380;9.822;2023-04-24T08:18:27;8.25;;;5.90;;
79212;SDS011;68639;52.380;9.822;2023-04-24T08:20:52;7.25;;;5.40;;
79212;SDS011;68639;52.380;9.822;2023-04-24T08:23:18;8.23;;;5.60;;
79212;SDS011;68639;52.380;9.822;2023-04-24T08:25:43;9.80;;;6.10;;
79212;SDS011;68639;52.380;9.822;2023-04-24T08:28:09;9.25;;;5.80;;
79212;SDS011;68639;52.380;9.822;2023-04-24T08:30:35;9.93;;;6.00;;
79212;SDS011;68639;52.380;9.822;2023-04-24T08:33:00;8.35;;;6.03;;
79212;SDS011;68639;52.380;9.822;2023-04-24T08:35:25;7.80;;;5.90;;
79212;SDS011;68639;52.380;9.822;2023-04-24T08:37:52;10.77;;;6.20;;
79212;SDS011;68639;52.380;9.822;2023-04-24T08:40:17;8.20;;;6.10;;
79212;SDS011;68639;52.380;9.822;2023-04-24T08:42:43;8.15;;;5.72;;
79212;SDS011;68639;52.380;9.822;2023-04-24T08:45:09;12.00;;;6.00;;
79212;SDS011;68639;52.380;9.822;2023-04-24T08:47:34;9.82;;;5.63;;
79212;SDS011;68639;52.380;9.822;2023-04-24T08:50:00;9.07;;;5.35;;
79212;SDS011;68639;52.380;9.822;2023-04-24T08:52:27;8.13;;;5.75;;
79212;SDS011;68639;52.380;9.822;2023-04-24T08:54:53;8.30;;;5.47;;
79212;SDS011;68639;52.380;9.822;2023-04-24T08:57:18;8.10;;;5.60;;
79212;SDS011;68639;52.380;9.822;2023-04-24T08:59:44;5.82;;;4.82;;
79212;SDS011;68639;52.380;9.822;2023-04-24T09:02:09;8.57;;;5.45;;
79212;SDS011;68639;52.380;9.822;2023-04-24T09:04:35;7.47;;;4.97;;
79212;SDS011;68639;52.380;9.822;2023-04-24T09:07:01;7.50;;;4.85;;
79212;SDS011;68639;52.380;9.822;2023-04-24T09:09:27;7.03;;;4.78;;
79212;SDS011;68639;52.380;9.822;2023-04-24T09:11:53;7.93;;;4.55;;
79212;SDS011;68639;52.380;9.822;2023-04-24T09:14:20;7.93;;;4.13;;
79212;SDS011;68639;52.380;9.822;2023-04-24T09:16:46;5.85;;;3.20;;
79212;SDS011;68639;52.380;9.822;2023-04-24T09:19:11;4.72;;;3.20;;
79212;SDS011;68639;52.380;9.822;2023-04-24T09:21:37;6.70;;;3.17;;
79212;SDS011;68639;52.380;9.822;2023-04-24T09:24:07;6.28;;;2.63;;
79212;SDS011;68639;52.380;9.822;2023-04-24T09:26:35;3.92;;;2.22;;
79212;SDS011;68639;52.380;9.822;2023-04-24T09:29:00;4.28;;;2.70;;
79212;SDS011;68639;52.380;9.822;2023-04-24T09:31:27;5.03;;;2.63;;
79212;SDS011;68639;52.380;9.822;2023-04-24T09:33:56;4.35;;;2.55;;
79212;SDS011;68639;52.380;9.822;2023-04-24T09:36:28;5.80;;;2.92;;
79212;SDS011;68639;52.380;9.822;2023-04-24T09:38:57;4.43;;;2.67;;
79212;SDS011;68639;52.380;9.822;2023-04-24T09:41:22;6.78;;;3.08;;
79212;SDS011;68639;52.380;9.822;2023-04-24T09:43:48;4.88;;;3.20;;
79212;SDS011;68639;52.380;9.822;2023-04-24T09:46:13;3.80;;;2.72;;
79212;SDS011;68639;52.380;9.822;2023-04-24T09:48:38;5.15;;;3.20;;
79212;SDS011;68639;52.380;9.822;2023-04-24T09:51:05;5.10;;;3.20;;
79212;SDS011;68639;52.380;9.822;2023-04-24T09:53:32;4.90;;;3.30;;
79212;SDS011;68639;52.380;9.822;2023-04-24T09:56:07;4.25;;;2.90;;
79212;SDS011;68639;52.380;9.822;2023-04-24T09:58:34;5.53;;;3.28;;
79212;SDS011;68639;52.380;9.822;2023-04-24T10:01:00;5.25;;;3.35;;
79212;SDS011;68639;52.380;9.822;2023-04-24T10:03:26;4.72;;;2.67;;
79212;SDS011;68639;52.380;9.822;2023-04-24T10:05:52;5.85;;;2.72;;
79212;SDS011;68639;52.380;9.822;2023-04-24T10:08:18;4.63;;;3.10;;
79212;SDS011;68639;52.380;9.822;2023-04-24T10:10:43;5.07;;;2.88;;
79212;SDS011;68639;52.380;9.822;2023-04-24T10:13:09;5.55;;;3.10;;
79212;SDS011;68639;52.380;9.822;2023-04-24T10:15:35;4.88;;;2.45;;
79212;SDS011;68639;52.380;9.822;2023-04-24T10:18:01;4.40;;;2.70;;
79212;SDS011;68639;52.380;9.822;2023-04-24T10:20:28;4.05;;;2.70;;
79212;SDS011;68639;52.380;9.822;2023-04-24T10:22:57;4.88;;;2.63;;
79212;SDS011;68639;52.380;9.822;2023-04-24T10:25:23;5.00;;;2.75;;
79212;SDS011;68639;52.380;9.822;2023-04-24T10:27:50;4.45;;;2.80;;
79212;SDS011;68639;52.380;9.822;2023-04-24T10:30:16;4.95;;;3.00;;
79212;SDS011;68639;52.380;9.822;2023-04-24T10:32:41;5.97;;;3.28;;
79212;SDS011;68639;52.380;9.822;2023-04-24T10:35:07;6.45;;;2.92;;
79212;SDS011;68639;52.380;9.822;2023-04-24T10:37:39;5.25;;;2.95;;
79212;SDS011;68639;52.380;9.822;2023-04-24T10:40:06;5.55;;;3.28;;
79212;SDS011;68639;52.380;9.822;2023-04-24T10:42:32;3.88;;;2.58;;
79212;SDS011;68639;52.380;9.822;2023-04-24T10:44:58;5.00;;;2.63;;
79212;SDS011;68639;52.380;9.822;2023-04-24T10:47:23;5.85;;;2.83;;
79212;SDS011;68639;52.380;9.822;2023-04-24T10:49:50;5.43;;;3.38;;
79212;SDS011;68639;52.380;9.822;2023-04-24T10:52:15;3.92;;;2.60;;
79212;SDS011;68639;52.380;9.822;2023-04-24T10:54:45;6.15;;;3.05;;
79212;SDS011;68639;52.380;9.822;2023-04-24T10:59:45;3.67;;;2.65;;
79212;SDS011;68639;52.380;9.822;2023-04-24T11:02:11;4.10;;;2.80;;
79212;SDS011;68639;52.380;9.822;2023-04-24T11:04:39;3.67;;;2.40;;
79212;SDS011;68639;52.380;9.822;2023-04-24T11:07:04;3.97;;;2.70;;
79212;SDS011;68639;52.380;9.822;2023-04-24T11:09:30;4.70;;;2.60;;
79212;SDS011;68639;52.380;9.822;2023-04-24T11:20:07;3.65;;;1.92;;
79212;SDS011;68639;52.380;9.822;2023-04-24T11:22:33;3.83;;;2.33;;
79212;SDS011;68639;52.380;9.822;2023-04-24T11:25:00;5.55;;;2.70;;
79212;SDS011;68639;52.380;9.822;2023-04-24T11:27:34;3.97;;;2.05;;
79212;SDS011;68639;52.380;9.822;2023-04-24T11:30:03;3.72;;;2.10;;
79212;SDS011;68639;52.380;9.822;2023-04-24T11:35:24;4.15;;;1.70;;
79212;SDS011;68639;52.380;9.822;2023-04-24T11:37:50;2.65;;;1.77;;
79212;SDS011;68639;52.380;9.822;2023-04-24T11:40:17;7.20;;;1.88;;
79212;SDS011;68639;52.380;9.822;2023-04-24T11:42:44;3.05;;;1.60;;
79212;SDS011;68639;52.380;9.822;2023-04-24T11:47:35;2.42;;;1.42;;
79212;SDS011;68639;52.380;9.822;2023-04-24T11:50:00;2.80;;;1.35;;
79212;SDS011;68639;52.380;9.822;2023-04-24T11:52:28;3.20;;;1.25;;
79212;SDS011;68639;52.380;9.822;2023-04-24T11:54:53;1.75;;;1.20;;
79212;SDS011;68639;52.380;9.822;2023-04-24T11:57:19;1.20;;;0.90;;
79212;SDS011;68639;52.380;9.822;2023-04-24T11:59:45;4.00;;;1.08;;
79212;SDS011;68639;52.380;9.822;2023-04-24T12:02:19;1.40;;;1.00;;
79212;SDS011;68639;52.380;9.822;2023-04-24T12:04:45;1.92;;;1.00;;
79212;SDS011;68639;52.380;9.822;2023-04-24T12:07:10;1.30;;;0.88;;
79212;SDS011;68639;52.380;9.822;2023-04-24T12:09:45;2.75;;;0.88;;
79212;SDS011;68639;52.380;9.822;2023-04-24T12:12:14;2.13;;;0.80;;
79212;SDS011;68639;52.380;9.822;2023-04-24T12:14:50;2.22;;;0.90;;
79212;SDS011;68639;52.380;9.822;2023-04-24T12:17:15;1.98;;;0.80;;
79212;SDS011;68639;52.380;9.822;2023-04-24T12:19:47;2.28;;;1.00;;
79212;SDS011;68639;52.380;9.822;2023-04-24T12:22:13;3.92;;;1.30;;
79212;SDS011;68639;52.380;9.822;2023-04-24T12:27:22;2.20;;;0.60;;
79212;SDS011;68639;52.380;9.822;2023-04-24T12:29:51;1.05;;;0.70;;
79212;SDS011;68639;52.380;9.822;2023-04-24T12:32:17;3.72;;;0.80;;
79212;SDS011;68639;52.380;9.822;2023-04-24T12:34:43;1.38;;;0.70;;
79212;SDS011;68639;52.380;9.822;2023-04-24T12:37:11;1.20;;;0.57;;
79212;SDS011;68639;52.380;9.822;2023-04-24T12:39:37;1.85;;;0.60;;
79212;SDS011;68639;52.380;9.822;2023-04-24T12:42:02;1.38;;;0.63;;
79212;SDS011;68639;52.380;9.822;2023-04-24T12:44:34;0.95;;;0.70;;
79212;SDS011;68639;52.380;9.822;2023-04-24T12:47:02;1.33;;;0.80;;
79212;SDS011;68639;52.380;9.822;2023-04-24T12:49:29;1.35;;;0.90;;
79212;SDS011;68639;52.380;9.822;2023-04-24T12:51:55;1.88;;;0.90;;
79212;SDS011;68639;52.380;9.822;2023-04-24T12:54:20;2.15;;;0.90;;
79212;SDS011;68639;52.380;9.822;2023-04-24T12:56:45;1.98;;;1.15;;
79212;SDS011;68639;52.380;9.822;2023-04-24T12:59:11;2.17;;;1.35;;
79212;SDS011;68639;52.380;9.822;2023-04-24T13:01:36;3.53;;;1.23;;
79212;SDS011;68639;52.380;9.822;2023-04-24T13:04:01;1.75;;;1.23;;
79212;SDS011;68639;52.380;9.822;2023-04-24T13:06:26;2.20;;;1.23;;
79212;SDS011;68639;52.380;9.822;2023-04-24T13:08:52;2.05;;;1.30;;
79212;SDS011;68639;52.380;9.822;2023-04-24T13:11:17;2.72;;;1.10;;
79212;SDS011;68639;52.380;9.822;2023-04-24T13:13:43;3.20;;;1.17;;
79212;SDS011;68639;52.380;9.822;2023-04-24T13:16:08;1.63;;;1.10;;
79212;SDS011;68639;52.380;9.822;2023-04-24T13:18:33;2.33;;;1.00;;
79212;SDS011;68639;52.380;9.822;2023-04-24T13:20:58;2.00;;;0.93;;
79212;SDS011;68639;52.380;9.822;2023-04-24T13:23:24;2.15;;;1.48;;
79212;SDS011;68639;52.380;9.822;2023-04-24T13:25:49;2.67;;;1.10;;
79212;SDS011;68639;52.380;9.822;2023-04-24T13:28:14;2.17;;;1.27;;
79212;SDS011;68639;52.380;9.822;2023-04-24T13:30:40;2.20;;;1.20;;
79212;SDS011;68639;52.380;9.822;2023-04-24T13:33:05;1.47;;;1.20;;
79212;SDS011;68639;52.380;9.822;2023-04-24T13:35:30;3.47;;;1.20;;
79212;SDS011;68639;52.380;9.822;2023-04-24T13:37:56;2.27;;;1.10;;
79212;SDS011;68639;52.380;9.822;2023-04-24T13:40:21;2.50;;;1.10;;
79212;SDS011;68639;52.380;9.822;2023-04-24T13:42:46;2.95;;;1.20;;
79212;SDS011;68639;52.380;9.822;2023-04-24T13:45:11;1.57;;;1.03;;
79212;SDS011;68639;52.380;9.822;2023-04-24T13:47:37;5.60;;;1.30;;
79212;SDS011;68639;52.380;9.822;2023-04-24T13:50:05;1.90;;;1.10;;
79212;SDS011;68639;52.380;9.822;2023-04-24T13:52:31;2.10;;;1.00;;
79212;SDS011;68639;52.380;9.822;2023-04-24T13:54:56;2.07;;;0.90;;
79212;SDS011;68639;52.380;9.822;2023-04-24T13:57:21;1.93;;;0.87;;
79212;SDS011;68639;52.380;9.822;2023-04-24T13:59:46;1.40;;;0.82;;
79212;SDS011;68639;52.380;9.822;2023-04-24T14:02:11;0.73;;;0.50;;
79212;SDS011;68639;52.380;9.822;2023-04-24T14:04:37;3.37;;;0.60;;
79212;SDS011;68639;52.380;9.822;2023-04-24T14:07:02;1.53;;;0.53;;
79212;SDS011;68639;52.380;9.822;2023-04-24T14:09:27;3.90;;;0.60;;
79212;SDS011;68639;52.380;9.822;2023-04-24T14:11:52;1.43;;;0.60;;
79212;SDS011;68639;52.380;9.822;2023-04-24T14:14:18;1.20;;;0.70;;
79212;SDS011;68639;52.380;9.822;2023-04-24T14:16:43;1.50;;;0.87;;
79212;SDS011;68639;52.380;9.822;2023-04-24T14:19:08;2.07;;;0.90;;
79212;SDS011;68639;52.380;9.822;2023-04-24T14:21:33;2.50;;;1.00;;
79212;SDS011;68639;52.380;9.822;2023-04-24T14:23:59;2.30;;;1.07;;
79212;SDS011;68639;52.380;9.822;2023-04-24T14:26:24;3.17;;;1.13;;
79212;SDS011;68639;52.380;9.822;2023-04-24T14:28:50;3.03;;;1.20;;
79212;SDS011;68639;52.380;9.822;2023-04-24T14:31:15;2.23;;;1.20;;
79212;SDS011;68639;52.380;9.822;2023-04-24T14:33:40;5.27;;;1.53;;
79212;SDS011;68639;52.380;9.822;2023-04-24T14:36:06;2.83;;;1.50;;
79212;SDS011;68639;52.380;9.822;2023-04-24T14:38:31;7.53;;;2.03;;
79212;SDS011;68639;52.380;9.822;2023-04-24T14:40:56;4.60;;;2.43;;
79212;SDS011;68639;52.380;9.822;2023-04-24T14:43:22;5.40;;;2.80;;
79212;SDS011;68639;52.380;9.822;2023-04-24T14:45:47;6.10;;;2.40;;
79212;SDS011;68639;52.380;9.822;2023-04-24T14:48:13;4.07;;;2.40;;
79212;SDS011;68639;52.380;9.822;2023-04-24T14:50:38;5.17;;;2.43;;
79212;SDS011;68639;52.380;9.822;2023-04-24T14:53:03;4.90;;;2.50;;
79212;SDS011;68639;52.380;9.822;2023-04-24T14:55:29;5.00;;;2.77;;
79212;SDS011;68639;52.380;9.822;2023-04-24T14:57:54;7.63;;;3.00;;